createdAt,value
2018-07-20T00:01:21.123Z,8.90
2018-07-20T00:03:53.696Z,8.80
2018-07-20T00:06:26.042Z,9.00
2018-07-20T00:08:58.153Z,8.70
2018-07-20T00:11:30.522Z,8.70
2018-07-20T00:14:02.956Z,9.30
2018-07-20T00:16:35.227Z,8.70
2018-07-20T00:19:07.847Z,9.50
2018-07-20T00:21:40.404Z,9.50
2018-07-20T00:24:12.800Z,9.20
2018-07-20T00:26:45.168Z,9.00
2018-07-20T00:29:17.364Z,9.30
2018-07-20T00:31:49.465Z,9.30
2018-07-20T00:34:21.892Z,9.50
2018-07-20T00:36:54.209Z,9.50
2018-07-20T00:39:26.654Z,9.40
2018-07-20T00:41:58.528Z,9.10
2018-07-20T00:44:30.381Z,8.80
2018-07-20T00:47:03.340Z,8.40
2018-07-20T00:49:35.856Z,9.80
2018-07-20T00:52:08.769Z,9.20
2018-07-20T00:57:12.256Z,8.70
2018-07-20T00:59:44.202Z,8.60
2018-07-20T01:02:16.158Z,8.30
2018-07-20T01:04:48.663Z,8.00
2018-07-20T01:07:21.161Z,8.20
2018-07-20T01:09:54.437Z,7.40
2018-07-20T01:12:26.839Z,7.60
2018-07-20T01:14:59.002Z,8.10
2018-07-20T01:17:31.317Z,8.50
2018-07-20T01:20:03.722Z,8.90
2018-07-20T01:22:35.575Z,9.10
2018-07-20T01:27:39.827Z,9.10
2018-07-20T01:30:12.345Z,8.80
2018-07-20T01:32:44.847Z,8.80
2018-07-20T01:35:17.264Z,8.50
2018-07-20T01:37:50.192Z,8.90
2018-07-20T01:40:22.583Z,8.80
2018-07-20T01:42:55.282Z,9.50
2018-07-20T01:45:27.822Z,8.50
2018-07-20T01:48:00.510Z,9.40
2018-07-20T01:53:05.159Z,8.90
2018-07-20T01:55:37.713Z,9.10
2018-07-20T01:58:09.963Z,9.00
2018-07-20T02:00:42.318Z,9.10
2018-07-20T02:03:14.485Z,8.80
2018-07-20T02:05:47.037Z,9.10
2018-07-20T02:08:19.448Z,9.30
2018-07-20T02:11:00.960Z,9.70
2018-07-20T02:13:33.213Z,9.50
2018-07-20T02:16:05.823Z,9.30
2018-07-20T02:18:38.138Z,9.10
2018-07-20T02:21:10.470Z,9.60
2018-07-20T02:23:42.848Z,9.20
2018-07-20T02:26:15.237Z,9.40
2018-07-20T02:28:47.568Z,9.70
2018-07-20T02:31:20.303Z,10.00
2018-07-20T02:33:52.705Z,9.70
2018-07-20T02:36:25.515Z,9.70
2018-07-20T02:41:29.329Z,10.00
2018-07-20T02:44:01.688Z,10.10
2018-07-20T02:46:35.116Z,10.40
2018-07-20T02:49:07.743Z,10.80
2018-07-20T02:51:40.339Z,10.90
2018-07-20T02:54:12.521Z,11.20
2018-07-20T02:56:45.088Z,11.00
2018-07-20T02:59:17.251Z,11.70
2018-07-20T03:01:49.549Z,11.80
2018-07-20T03:04:21.976Z,12.20
2018-07-20T03:06:54.417Z,12.30
2018-07-20T03:09:26.745Z,12.40
2018-07-20T03:11:59.453Z,12.70
2018-07-20T03:14:31.872Z,13.20
2018-07-20T03:17:05.240Z,13.40
2018-07-20T03:19:37.787Z,14.40
2018-07-20T03:22:10.141Z,14.10
2018-07-20T03:24:42.813Z,14.30
2018-07-20T03:27:15.205Z,14.80
2018-07-20T03:29:48.007Z,16.10
2018-07-20T03:32:20.363Z,15.60
2018-07-20T03:34:53.107Z,16.50
2018-07-20T03:37:25.707Z,16.10
2018-07-20T03:39:58.270Z,17.50
2018-07-20T03:42:30.914Z,16.80
2018-07-20T03:45:03.332Z,16.90
2018-07-20T03:47:36.042Z,18.30
2018-07-20T03:50:08.764Z,17.50
2018-07-20T03:52:41.110Z,18.00
2018-07-20T03:55:13.503Z,18.60
2018-07-20T03:57:45.837Z,18.40
2018-07-20T04:00:18.473Z,18.80
2018-07-20T04:02:50.892Z,18.60
2018-07-20T04:05:23.244Z,21.50
2018-07-20T04:07:55.501Z,20.30
2018-07-20T04:12:59.205Z,20.20
2018-07-20T04:18:03.493Z,20.90
2018-07-20T04:20:35.835Z,21.00
2018-07-20T04:23:08.428Z,21.30
2018-07-20T04:25:41.061Z,21.40
2018-07-20T04:28:14.443Z,22.30
2018-07-20T04:30:46.839Z,22.00
2018-07-20T04:33:19.210Z,21.80
2018-07-20T04:35:51.742Z,21.90
2018-07-20T04:38:24.178Z,21.90
2018-07-20T04:40:56.882Z,22.10
2018-07-20T04:43:29.243Z,22.30
2018-07-20T04:46:02.023Z,23.10
2018-07-20T04:48:34.218Z,22.80
2018-07-20T04:51:06.737Z,23.00
2018-07-20T04:53:39.862Z,23.00
2018-07-20T04:56:12.770Z,23.20
2018-07-20T04:58:45.097Z,24.00
2018-07-20T05:01:17.502Z,24.00
2018-07-20T05:03:49.817Z,23.70
2018-07-20T05:06:22.186Z,24.70
2018-07-20T05:11:26.465Z,24.50
2018-07-20T05:16:29.964Z,24.40
2018-07-20T05:19:02.870Z,24.50
2018-07-20T05:21:36.314Z,24.40
2018-07-20T05:24:08.923Z,24.60
2018-07-20T05:26:41.919Z,24.80
2018-07-20T05:29:14.498Z,25.30
2018-07-20T05:31:47.049Z,25.20
2018-07-20T05:34:19.443Z,25.60
2018-07-20T05:36:51.751Z,25.60
2018-07-20T05:39:24.023Z,25.60
2018-07-20T05:41:56.325Z,26.30
2018-07-20T05:44:28.806Z,25.60
2018-07-20T05:47:01.211Z,25.00
2018-07-20T05:49:33.759Z,25.30
2018-07-20T05:52:06.139Z,25.60
2018-07-20T05:54:39.313Z,25.50
2018-07-20T05:57:11.650Z,25.90
2018-07-20T05:59:43.900Z,26.10
2018-07-20T06:02:16.545Z,26.00
2018-07-20T06:04:49.183Z,26.50
2018-07-20T06:07:21.608Z,26.80
2018-07-20T06:09:54.069Z,26.60
2018-07-20T06:12:26.413Z,26.70
2018-07-20T06:14:58.856Z,26.80
2018-07-20T06:17:31.558Z,26.60
2018-07-20T06:20:04.170Z,27.00
2018-07-20T06:22:36.774Z,26.90
2018-07-20T06:25:09.997Z,27.10
2018-07-20T06:27:42.304Z,26.90
2018-07-20T06:30:14.869Z,27.40
2018-07-20T06:32:47.402Z,27.60
2018-07-20T06:35:19.592Z,27.20
2018-07-20T06:37:52.251Z,26.90
2018-07-20T06:40:24.527Z,26.70
2018-07-20T06:42:57.307Z,26.40
2018-07-20T06:45:29.891Z,26.60
2018-07-20T06:48:02.662Z,27.00
2018-07-20T06:50:34.865Z,26.70
2018-07-20T06:53:07.511Z,26.70
2018-07-20T06:55:40.110Z,27.20
2018-07-20T06:58:12.486Z,27.30
2018-07-20T07:00:44.848Z,27.40
2018-07-20T07:03:17.725Z,27.60
2018-07-20T07:05:50.142Z,27.80
2018-07-20T07:08:22.700Z,27.60
2018-07-20T07:10:55.265Z,27.70
2018-07-20T07:13:27.829Z,27.80
2018-07-20T07:16:01.747Z,27.90
2018-07-20T07:18:34.397Z,27.90
2018-07-20T07:21:07.111Z,28.20
2018-07-20T07:23:39.586Z,28.40
2018-07-20T07:28:43.546Z,28.20
2018-07-20T07:31:15.828Z,27.90
2018-07-20T07:33:48.087Z,27.60
2018-07-20T07:36:20.287Z,27.70
2018-07-20T07:38:52.786Z,27.70
2018-07-20T07:41:25.363Z,27.90
2018-07-20T07:43:58.315Z,27.90
2018-07-20T07:46:30.542Z,27.80
2018-07-20T07:49:03.121Z,28.10
2018-07-20T07:51:35.854Z,28.20
2018-07-20T07:54:08.406Z,28.10
2018-07-20T07:56:41.595Z,27.90
2018-07-20T07:59:13.591Z,28.20
2018-07-20T08:01:46.013Z,28.20
2018-07-20T08:04:18.341Z,28.10
2018-07-20T08:06:50.489Z,28.10
2018-07-20T08:09:22.860Z,28.20
2018-07-20T08:11:55.334Z,27.80
2018-07-20T08:14:27.784Z,28.00
2018-07-20T08:17:00.421Z,27.80
2018-07-20T08:19:32.905Z,27.70
2018-07-20T08:22:05.558Z,28.00
2018-07-20T08:24:37.741Z,28.00
2018-07-20T08:27:10.115Z,27.90
2018-07-20T08:29:42.469Z,28.10
2018-07-20T08:32:15.029Z,28.10
2018-07-20T08:34:47.600Z,28.40
2018-07-20T08:37:19.863Z,28.50
2018-07-20T08:39:52.552Z,28.50
2018-07-20T08:42:25.073Z,28.40
2018-07-20T08:44:57.489Z,28.40
2018-07-20T08:47:29.853Z,28.50
2018-07-20T08:50:02.084Z,28.70
2018-07-20T08:52:34.881Z,28.90
2018-07-20T08:55:07.356Z,29.00
2018-07-20T08:57:39.934Z,29.10
2018-07-20T09:00:12.068Z,28.90
2018-07-20T09:02:44.587Z,29.10
2018-07-20T09:05:17.082Z,29.20
2018-07-20T09:07:49.444Z,29.30
2018-07-20T09:10:21.608Z,29.60
2018-07-20T09:12:54.064Z,29.40
2018-07-20T09:15:26.327Z,29.70
2018-07-20T09:17:58.819Z,29.80
2018-07-20T09:20:31.171Z,29.80
2018-07-20T09:23:03.782Z,30.00
2018-07-20T09:25:37.125Z,29.80
2018-07-20T09:28:10.383Z,30.40
2018-07-20T09:30:42.734Z,30.30
2018-07-20T09:33:15.237Z,31.20
2018-07-20T09:35:47.575Z,31.60
2018-07-20T09:38:19.988Z,31.60
2018-07-20T09:40:52.512Z,32.10
2018-07-20T09:43:25.127Z,33.20
2018-07-20T09:45:57.708Z,33.20
2018-07-20T09:48:29.860Z,32.80
2018-07-20T09:51:02.263Z,33.40
2018-07-20T09:53:34.601Z,33.40
2018-07-20T09:56:07.325Z,33.20
2018-07-20T09:58:39.869Z,33.70
2018-07-20T10:01:12.062Z,34.90
2018-07-20T10:03:44.577Z,34.60
2018-07-20T10:06:16.926Z,35.40
2018-07-20T10:08:49.530Z,35.80
2018-07-20T10:11:22.240Z,36.60
2018-07-20T10:13:54.892Z,37.30
2018-07-20T10:16:27.424Z,37.40
2018-07-20T10:18:59.884Z,38.10
2018-07-20T10:21:32.346Z,38.30
2018-07-20T10:24:04.844Z,38.20
2018-07-20T10:26:36.959Z,38.40
2018-07-20T10:29:09.298Z,38.90
2018-07-20T10:31:41.670Z,39.30
2018-07-20T10:34:13.887Z,39.20
2018-07-20T10:36:46.243Z,39.60
2018-07-20T10:39:19.325Z,39.80
2018-07-20T10:41:52.372Z,40.50
2018-07-20T10:44:24.856Z,40.00
2018-07-20T10:46:57.255Z,40.20
2018-07-20T10:49:29.643Z,40.10
2018-07-20T10:52:02.175Z,40.10
2018-07-20T10:54:34.568Z,40.90
2018-07-20T10:57:07.241Z,41.80
2018-07-20T10:59:39.767Z,42.10
2018-07-20T11:02:12.072Z,42.70
2018-07-20T11:04:44.872Z,42.20
2018-07-20T11:07:17.277Z,42.00
2018-07-20T11:09:49.777Z,42.40
2018-07-20T11:12:22.193Z,42.70
2018-07-20T11:14:54.419Z,42.50
2018-07-20T11:17:26.961Z,43.40
2018-07-20T11:20:00.652Z,44.40
2018-07-20T11:22:33.338Z,44.20
2018-07-20T11:25:05.892Z,44.90
2018-07-20T11:27:38.450Z,44.40
2018-07-20T11:30:10.727Z,45.00
2018-07-20T11:32:42.959Z,44.60
2018-07-20T11:35:15.373Z,44.20
2018-07-20T11:37:47.776Z,44.50
2018-07-20T11:40:20.128Z,44.40
2018-07-20T11:42:53.088Z,44.30
2018-07-20T11:45:25.536Z,45.00
2018-07-20T11:47:57.932Z,45.00
2018-07-20T11:50:30.360Z,44.90
2018-07-20T11:53:02.483Z,45.50
2018-07-20T11:55:35.656Z,45.50
2018-07-20T11:58:07.982Z,45.70
2018-07-20T12:00:40.354Z,46.40
2018-07-20T12:03:12.552Z,46.90
2018-07-20T12:05:44.846Z,47.30
2018-07-20T12:08:17.462Z,46.90
2018-07-20T12:10:50.603Z,46.60
2018-07-20T12:13:23.209Z,46.90
2018-07-20T12:15:55.566Z,46.60
2018-07-20T12:18:27.886Z,46.50
2018-07-20T12:21:00.470Z,46.30
2018-07-20T12:23:32.841Z,48.00
2018-07-20T12:26:05.346Z,47.90
2018-07-20T12:28:37.624Z,47.70
2018-07-20T12:31:10.155Z,48.20
2018-07-20T12:33:42.589Z,47.90
2018-07-20T12:36:14.929Z,48.60
2018-07-20T12:38:47.583Z,50.30
2018-07-20T12:41:19.744Z,50.50
2018-07-20T12:43:52.144Z,50.50
2018-07-20T12:46:24.596Z,50.00
2018-07-20T12:48:57.010Z,51.30
2018-07-20T12:51:29.233Z,51.10
2018-07-20T12:54:01.594Z,52.00
2018-07-20T12:56:34.109Z,52.40
2018-07-20T12:59:06.862Z,53.10
2018-07-20T13:01:39.264Z,53.20
2018-07-20T13:04:11.913Z,53.70
2018-07-20T13:06:44.204Z,53.80
2018-07-20T13:09:16.456Z,54.10
2018-07-20T13:11:48.787Z,54.80
2018-07-20T13:14:20.957Z,54.90
2018-07-20T13:16:53.493Z,54.50
2018-07-20T13:19:26.136Z,54.70
2018-07-20T13:21:59.000Z,55.50
2018-07-20T13:24:31.633Z,56.30
2018-07-20T13:27:03.980Z,56.70
2018-07-20T13:29:36.600Z,57.00
2018-07-20T13:32:09.151Z,57.40
2018-07-20T13:34:41.524Z,56.20
2018-07-20T13:37:13.975Z,56.50
2018-07-20T13:39:46.344Z,56.90
2018-07-20T13:42:19.839Z,56.70
2018-07-20T13:44:51.943Z,56.40
2018-07-20T13:47:24.542Z,55.70
2018-07-20T13:49:56.738Z,55.20
2018-07-20T13:52:29.879Z,54.70
2018-07-20T13:55:02.252Z,54.10
2018-07-20T13:57:34.589Z,53.30
2018-07-20T14:00:07.584Z,53.10
2018-07-20T14:02:39.821Z,52.10
2018-07-20T14:05:12.533Z,52.70
2018-07-20T14:07:44.950Z,51.30
2018-07-20T14:10:17.765Z,50.80
2018-07-20T14:12:50.100Z,49.40
2018-07-20T14:15:23.181Z,47.60
2018-07-20T14:17:55.928Z,46.40
2018-07-20T14:20:28.678Z,47.30
2018-07-20T14:23:01.295Z,45.60
2018-07-20T14:25:34.011Z,45.10
2018-07-20T14:28:06.475Z,44.30
2018-07-20T14:33:10.883Z,42.20
2018-07-20T14:35:44.881Z,40.40
2018-07-20T14:38:17.883Z,40.20
2018-07-20T14:40:50.999Z,39.60
2018-07-20T14:43:24.611Z,38.80
2018-07-20T14:45:57.009Z,37.50
2018-07-20T14:48:29.780Z,38.30
2018-07-20T14:51:02.757Z,35.70
2018-07-20T14:53:37.190Z,35.10
2018-07-20T14:56:09.886Z,34.80
2018-07-20T14:58:42.649Z,35.40
2018-07-20T15:01:15.431Z,35.70
2018-07-20T15:03:48.164Z,35.30
2018-07-20T15:06:21.086Z,35.10
2018-07-20T15:08:53.579Z,33.90
2018-07-20T15:11:26.092Z,31.90
2018-07-20T15:13:58.562Z,32.00
2018-07-20T15:16:31.130Z,31.60
2018-07-20T15:19:03.912Z,30.70
2018-07-20T15:21:36.402Z,29.30
2018-07-20T15:24:08.943Z,29.00
2018-07-20T15:26:41.480Z,29.50
2018-07-20T15:29:13.835Z,29.00
2018-07-20T15:31:46.583Z,28.80
2018-07-20T15:34:18.793Z,28.20
2018-07-20T15:36:51.243Z,27.30
2018-07-20T15:39:23.704Z,27.00
2018-07-20T15:41:55.971Z,23.50
2018-07-20T15:44:29.191Z,21.50
2018-07-20T15:47:02.392Z,18.20
2018-07-20T15:49:35.760Z,14.10
2018-07-20T15:54:42.588Z,10.20
2018-07-20T15:57:14.909Z,8.00
2018-07-20T15:59:47.342Z,5.20
2018-07-20T16:02:19.752Z,3.80
2018-07-20T16:04:52.106Z,4.00
2018-07-20T16:07:24.222Z,1.40
2018-07-20T16:09:56.758Z,2.40
2018-07-20T16:12:29.232Z,1.00
2018-07-20T16:15:01.337Z,1.00
2018-07-20T16:17:33.818Z,1.00
2018-07-20T16:22:37.633Z,1.00
2018-07-20T16:25:10.006Z,1.00
2018-07-20T16:27:42.560Z,1.00
2018-07-20T16:30:15.105Z,1.00
2018-07-20T16:32:49.150Z,1.00
2018-07-20T16:35:21.455Z,1.00
2018-07-20T16:37:53.741Z,1.00
2018-07-20T16:40:26.428Z,1.00
2018-07-20T16:42:58.756Z,1.00
2018-07-20T16:48:02.292Z,1.00
2018-07-20T16:50:35.240Z,1.00
2018-07-20T16:53:07.545Z,1.00
2018-07-20T16:55:39.821Z,1.00
2018-07-20T16:58:12.743Z,1.00
2018-07-20T17:00:45.097Z,1.00
2018-07-20T17:03:17.501Z,1.00
2018-07-20T17:05:49.761Z,1.00
2018-07-20T17:08:22.270Z,1.00
2018-07-20T17:10:54.690Z,1.00
2018-07-20T17:13:27.116Z,1.00
2018-07-20T17:15:59.459Z,1.00
2018-07-20T17:18:31.863Z,1.00
2018-07-20T17:21:04.907Z,1.00
2018-07-20T17:23:37.270Z,1.00
2018-07-20T17:26:09.827Z,1.00
2018-07-20T17:28:41.945Z,1.00
2018-07-20T17:31:14.252Z,1.00
2018-07-20T17:33:46.688Z,1.00
2018-07-20T17:36:19.442Z,1.00
2018-07-20T17:38:51.725Z,1.00
2018-07-20T17:41:24.034Z,1.00
2018-07-20T17:43:56.281Z,1.00
2018-07-20T17:46:28.896Z,1.00
2018-07-20T17:49:01.333Z,1.00
2018-07-20T17:51:34.609Z,1.00
2018-07-20T17:54:07.642Z,1.00
2018-07-20T17:56:40.839Z,1.00
2018-07-20T17:59:13.159Z,1.00
2018-07-20T18:01:45.341Z,1.00
2018-07-20T18:04:17.845Z,1.00
2018-07-20T18:06:50.212Z,1.00
2018-07-20T18:09:22.720Z,1.00
2018-07-20T18:11:55.345Z,1.00
2018-07-20T18:14:27.668Z,1.00
2018-07-20T18:17:00.266Z,1.00
2018-07-20T18:19:32.705Z,1.00
2018-07-20T18:22:04.845Z,1.00
2018-07-20T18:24:37.342Z,1.00
2018-07-20T18:27:09.870Z,1.00
2018-07-20T18:29:42.400Z,1.00
2018-07-20T18:32:14.682Z,1.00
2018-07-20T18:34:47.062Z,1.00
2018-07-20T18:37:19.518Z,1.00
2018-07-20T18:39:52.115Z,1.00
2018-07-20T18:42:24.676Z,1.00
2018-07-20T18:44:57.320Z,1.00
2018-07-20T18:47:30.381Z,1.00
2018-07-20T18:50:02.847Z,1.00
2018-07-20T18:52:35.151Z,1.00
2018-07-20T18:55:07.176Z,1.00
2018-07-20T18:57:39.869Z,1.00
2018-07-20T19:00:12.769Z,1.00
2018-07-20T19:02:46.226Z,1.00
2018-07-20T19:05:18.686Z,1.00
2018-07-20T19:07:50.739Z,1.00
2018-07-20T19:10:23.332Z,1.00
2018-07-20T19:12:55.247Z,1.00
2018-07-20T19:15:28.145Z,1.00
2018-07-20T19:18:01.003Z,1.00
2018-07-20T19:20:33.458Z,1.00
2018-07-20T19:23:06.142Z,1.00
2018-07-20T19:25:38.663Z,1.00
2018-07-20T19:28:11.248Z,1.00
2018-07-20T19:30:43.694Z,1.00
2018-07-20T19:33:16.393Z,1.00
2018-07-20T19:35:48.672Z,1.00
2018-07-20T19:38:20.908Z,1.00
2018-07-20T19:40:53.473Z,1.00
2018-07-20T19:43:26.222Z,1.00
2018-07-20T19:45:58.621Z,1.00
2018-07-20T19:48:31.218Z,1.00
2018-07-20T19:51:03.724Z,1.00
2018-07-20T19:53:35.958Z,1.00
2018-07-20T19:56:08.448Z,1.00
2018-07-20T19:58:41.037Z,1.00
2018-07-20T20:01:13.387Z,1.00
2018-07-20T20:03:46.047Z,1.00
2018-07-20T20:06:18.709Z,1.00
2018-07-20T20:08:51.464Z,1.00
2018-07-20T20:11:23.651Z,1.00
2018-07-20T20:13:56.029Z,1.00
2018-07-20T20:16:29.387Z,1.00
2018-07-20T20:19:01.839Z,1.00
2018-07-20T20:21:33.944Z,1.00
2018-07-20T20:24:07.352Z,1.00
2018-07-20T20:26:39.871Z,1.00
2018-07-20T20:29:12.325Z,1.00
2018-07-20T20:31:45.064Z,1.00
2018-07-20T20:34:17.081Z,1.00
2018-07-20T20:36:49.549Z,1.00
2018-07-20T20:39:21.889Z,1.00
2018-07-20T20:41:54.038Z,1.00
2018-07-20T20:44:26.664Z,1.00
2018-07-20T20:46:59.168Z,1.00
2018-07-20T20:49:31.754Z,1.00
2018-07-20T20:52:04.232Z,1.00
2018-07-20T20:54:37.414Z,1.00
2018-07-20T20:57:09.703Z,1.00
2018-07-20T20:59:42.711Z,1.00
2018-07-20T21:02:15.262Z,1.00
2018-07-20T21:04:47.736Z,1.00
2018-07-20T21:07:19.984Z,1.00
2018-07-20T21:09:52.492Z,1.00
2018-07-20T21:12:24.869Z,1.00
2018-07-20T21:14:57.136Z,2.00
2018-07-20T21:17:29.747Z,1.30
2018-07-20T21:20:02.106Z,1.50
2018-07-20T21:22:34.429Z,1.30
2018-07-20T21:25:07.512Z,2.00
2018-07-20T21:27:40.197Z,2.10
2018-07-20T21:30:12.644Z,1.30
2018-07-20T21:32:44.920Z,2.00
2018-07-20T21:35:17.755Z,1.50
2018-07-20T21:37:50.340Z,1.30
2018-07-20T21:40:22.666Z,1.30
2018-07-20T21:42:55.092Z,1.30
2018-07-20T21:45:27.479Z,1.20
2018-07-20T21:48:00.006Z,1.00
2018-07-20T21:50:32.572Z,1.50
2018-07-20T21:53:05.013Z,1.50
2018-07-20T21:55:37.255Z,1.60
2018-07-20T21:58:09.685Z,2.40
2018-07-20T22:00:43.157Z,1.70
2018-07-20T22:03:15.635Z,1.00
2018-07-20T22:05:50.035Z,1.00
2018-07-20T22:08:22.861Z,1.00
2018-07-20T22:13:26.755Z,1.00
2018-07-20T22:15:59.319Z,1.00
2018-07-20T22:18:31.675Z,1.00
2018-07-20T22:21:03.934Z,1.00
2018-07-20T22:23:36.489Z,1.00
2018-07-20T22:28:40.918Z,1.00
2018-07-20T22:31:13.102Z,1.00
2018-07-20T22:33:45.712Z,1.00
2018-07-20T22:36:18.268Z,1.00
2018-07-20T22:38:50.647Z,1.00
2018-07-20T22:41:23.076Z,1.00
2018-07-20T22:43:55.749Z,1.00
2018-07-20T22:46:28.502Z,1.00
2018-07-20T22:49:00.973Z,1.00
2018-07-20T22:51:33.475Z,1.00
2018-07-20T22:54:06.095Z,1.00
2018-07-20T22:56:38.673Z,1.00
2018-07-20T22:59:11.113Z,1.00
2018-07-20T23:01:43.933Z,1.00
2018-07-20T23:04:16.690Z,1.00
2018-07-20T23:09:21.450Z,1.00
2018-07-20T23:11:54.466Z,1.00
2018-07-20T23:14:26.865Z,1.00
2018-07-20T23:16:59.351Z,1.00
2018-07-20T23:19:31.699Z,1.00
2018-07-20T23:22:04.268Z,1.00
2018-07-20T23:24:36.604Z,1.00
2018-07-20T23:27:09.256Z,1.00
2018-07-20T23:32:13.304Z,1.00
2018-07-20T23:34:46.405Z,1.00
2018-07-20T23:37:18.902Z,1.00
2018-07-20T23:39:51.272Z,1.00
2018-07-20T23:42:29.192Z,1.00
2018-07-20T23:45:01.876Z,1.00
2018-07-20T23:47:34.267Z,1.00
2018-07-20T23:50:07.087Z,1.00
2018-07-20T23:52:39.476Z,1.00
2018-07-20T23:55:12.090Z,1.00
2018-07-20T23:57:44.573Z,1.00
